Time,TemperatureF,DewpointF,PressureIn,WindDirection,WindDirectionDegrees,WindSpeedMPH,WindSpeedGustMPH,Humidity,HourlyPrecipIn,Conditions,Clouds,dailyrainin,SoftwareType,DateUTC
2013-08-12 00:00:00,66.7,66.7,30.21,SSE,147,0.0,0.0,100,-0.18,,,0.00,Weather View 32 v70,2013-08-12 04:00:00,
2013-08-12 00:01:00,66.7,66.7,30.21,SSE,147,0.0,0.0,100,-0.18,,,0.00,Weather View 32 v70,2013-08-12 04:01:00,
2013-08-12 00:04:00,66.7,66.7,30.21,SSE,147,0.0,0.0,100,-0.18,,,0.00,Weather View 32 v70,2013-08-12 04:04:00,
2013-08-12 00:09:00,66.6,66.6,30.21,SSE,147,0.0,0.0,100,-0.18,,,0.00,Weather View 32 v70,2013-08-12 04:09:00,
2013-08-12 00:14:00,66.6,66.6,30.21,SSE,147,0.0,0.0,100,-0.18,,,0.00,Weather View 32 v70,2013-08-12 04:14:00,
2013-08-12 00:19:00,66.8,66.8,30.22,South,188,0.0,0.0,100,-0.18,,,0.00,Weather View 32 v70,2013-08-12 04:19:00,
2013-08-12 00:24:00,66.8,66.8,30.22,South,188,0.0,0.0,100,-0.18,,,0.00,Weather View 32 v70,2013-08-12 04:24:00,
2013-08-12 00:29:00,66.9,66.9,30.22,South,181,0.0,0.0,100,-0.18,,,0.00,Weather View 32 v70,2013-08-12 04:29:00,
2013-08-12 00:34:00,66.9,66.9,30.22,South,181,0.0,0.0,100,-0.18,,,0.00,Weather View 32 v70,2013-08-12 04:34:00,
2013-08-12 00:39:00,66.8,66.8,30.22,South,181,0.0,0.0,100,-0.18,,,0.00,Weather View 32 v70,2013-08-12 04:39:00,
2013-08-12 00:44:00,66.8,66.8,30.22,South,181,0.0,0.0,100,-0.18,,,0.00,Weather View 32 v70,2013-08-12 04:44:00,
2013-08-12 00:49:00,66.7,66.7,30.22,South,181,0.0,0.0,100,-0.18,,,0.00,Weather View 32 v70,2013-08-12 04:49:00,
2013-08-12 00:54:00,66.7,66.7,30.21,South,181,0.0,0.0,100,-0.18,,,0.00,Weather View 32 v70,2013-08-12 04:54:00,
2013-08-12 00:59:00,66.6,66.6,30.22,South,181,0.0,0.0,100,0.00,,,0.00,Weather View 32 v70,2013-08-12 04:59:00,
2013-08-12 01:04:00,66.4,66.4,30.21,South,178,0.0,0.0,100,0.00,,,0.00,Weather View 32 v70,2013-08-12 05:04:00,
2013-08-12 01:09:00,66.3,66.3,30.21,South,178,0.0,0.0,100,0.00,,,0.00,Weather View 32 v70,2013-08-12 05:09:00,
2013-08-12 01:14:00,66.2,66.2,30.21,South,178,0.0,0.0,100,0.00,,,0.00,Weather View 32 v70,2013-08-12 05:14:00,
2013-08-12 01:19:00,66.1,66.1,30.21,South,178,0.0,0.0,100,0.00,,,0.00,Weather View 32 v70,2013-08-12 05:19:00,
2013-08-12 01:24:00,66.0,66.0,30.21,South,178,0.0,0.0,100,0.00,,,0.00,Weather View 32 v70,2013-08-12 05:24:00,
2013-08-12 01:29:00,65.9,65.9,30.21,South,178,0.0,0.0,100,0.00,,,0.00,Weather View 32 v70,2013-08-12 05:29:00,
2013-08-12 01:34:00,65.8,65.8,30.21,South,178,0.0,0.0,100,0.00,,,0.00,Weather View 32 v70,2013-08-12 05:34:00,
2013-08-12 01:39:00,65.8,65.8,30.21,South,178,0.0,0.0,100,0.00,,,0.00,Weather View 32 v70,2013-08-12 05:39:00,
2013-08-12 01:44:00,65.7,65.7,30.21,South,178,0.0,0.0,100,0.00,,,0.00,Weather View 32 v70,2013-08-12 05:44:00,
2013-08-12 01:49:00,65.7,65.7,30.21,South,178,0.0,0.0,100,0.00,,,0.00,Weather View 32 v70,2013-08-12 05:49:00,
2013-08-12 01:54:00,65.8,65.8,30.21,South,179,0.0,0.0,100,0.00,,,0.00,Weather View 32 v70,2013-08-12 05:54:00,
2013-08-12 01:59:00,65.8,65.8,30.21,South,179,0.0,0.0,100,0.00,,,0.00,Weather View 32 v70,2013-08-12 05:59:00,
2013-08-12 02:04:00,65.8,65.8,30.21,South,179,0.0,0.0,100,0.00,,,0.00,Weather View 32 v70,2013-08-12 06:04:00,
2013-08-12 02:09:00,65.7,65.7,30.21,South,179,0.0,0.0,100,0.00,,,0.00,Weather View 32 v70,2013-08-12 06:09:00,
2013-08-12 02:14:00,65.7,65.7,30.20,South,179,0.0,0.0,100,0.00,,,0.00,Weather View 32 v70,2013-08-12 06:14:00,
2013-08-12 02:19:00,65.6,65.6,30.20,South,179,0.0,0.0,100,0.00,,,0.00,Weather View 32 v70,2013-08-12 06:19:00,
2013-08-12 02:24:00,65.6,65.6,30.20,South,179,0.0,0.0,100,0.00,,,0.00,Weather View 32 v70,2013-08-12 06:24:00,
2013-08-12 02:29:00,65.7,65.7,30.20,South,175,0.0,0.0,100,0.00,,,0.00,Weather View 32 v70,2013-08-12 06:29:00,
2013-08-12 02:34:00,65.6,65.6,30.20,South,176,0.0,0.0,100,0.00,,,0.00,Weather View 32 v70,2013-08-12 06:34:00,
2013-08-12 02:39:00,65.6,65.6,30.20,South,176,0.0,0.0,100,0.00,,,0.00,Weather View 32 v70,2013-08-12 06:39:00,
2013-08-12 02:44:00,65.6,65.6,30.20,South,176,0.0,0.0,100,0.00,,,0.00,Weather View 32 v70,2013-08-12 06:44:00,
2013-08-12 02:50:00,65.6,65.6,30.19,South,176,0.0,0.0,100,0.00,,,0.00,Weather View 32 v70,2013-08-12 06:50:00,
2013-08-12 02:55:00,65.5,65.5,30.20,South,176,0.0,0.0,100,0.00,,,0.00,Weather View 32 v70,2013-08-12 06:55:00,
2013-08-12 03:00:00,65.5,65.5,30.19,South,176,0.0,0.0,100,0.00,,,0.00,Weather View 32 v70,2013-08-12 07:00:00,
2013-08-12 03:05:00,65.4,65.4,30.19,SSE,166,0.0,0.0,100,0.00,,,0.00,Weather View 32 v70,2013-08-12 07:05:00,
2013-08-12 03:10:00,65.4,65.4,30.19,SSE,166,0.0,0.0,100,0.00,,,0.00,Weather View 32 v70,2013-08-12 07:10:00,
2013-08-12 03:15:00,65.3,65.3,30.19,SSE,166,0.0,0.0,100,0.00,,,0.00,Weather View 32 v70,2013-08-12 07:15:00,
2013-08-12 03:20:00,65.3,65.3,30.19,SSE,166,0.0,0.0,100,0.00,,,0.00,Weather View 32 v70,2013-08-12 07:20:00,
2013-08-12 03:25:00,65.2,65.2,30.19,SSE,166,0.0,0.0,100,0.00,,,0.00,Weather View 32 v70,2013-08-12 07:25:00,
2013-08-12 03:30:00,65.1,65.1,30.19,SSE,166,0.0,0.0,100,0.00,,,0.00,Weather View 32 v70,2013-08-12 07:30:00,
2013-08-12 03:35:00,65.0,65.0,30.19,SSE,166,0.0,0.0,100,0.00,,,0.00,Weather View 32 v70,2013-08-12 07:35:00,
2013-08-12 03:40:00,65.0,65.0,30.19,SSE,166,0.0,0.0,100,0.00,,,0.00,Weather View 32 v70,2013-08-12 07:40:00,
2013-08-12 03:45:00,64.9,64.9,30.20,SSE,166,0.0,0.0,100,0.00,,,0.00,Weather View 32 v70,2013-08-12 07:45:00,
2013-08-12 03:50:00,64.8,64.8,30.20,SSE,166,0.0,0.0,100,0.00,,,0.00,Weather View 32 v70,2013-08-12 07:50:00,
2013-08-12 03:55:00,64.8,64.8,30.20,SSE,166,0.0,0.0,100,0.00,,,0.00,Weather View 32 v70,2013-08-12 07:55:00,
2013-08-12 04:00:00,64.7,64.7,30.19,SSE,166,0.0,0.0,100,0.00,,,0.00,Weather View 32 v70,2013-08-12 08:00:00,
2013-08-12 04:05:00,64.7,64.7,30.19,SSE,166,0.0,0.0,100,0.00,,,0.00,Weather View 32 v70,2013-08-12 08:05:00,
2013-08-12 04:10:00,64.7,64.7,30.19,SSE,167,0.0,0.0,100,0.00,,,0.00,Weather View 32 v70,2013-08-12 08:10:00,
2013-08-12 04:15:00,64.7,64.7,30.19,SSE,167,0.0,0.0,100,0.00,,,0.00,Weather View 32 v70,2013-08-12 08:15:00,
2013-08-12 04:20:00,64.8,64.8,30.19,SSE,167,0.0,0.0,100,0.00,,,0.00,Weather View 32 v70,2013-08-12 08:20:00,
2013-08-12 04:25:00,64.8,64.8,30.19,SSE,167,0.0,0.0,100,0.00,,,0.00,Weather View 32 v70,2013-08-12 08:25:00,
2013-08-12 04:30:00,64.8,64.8,30.19,SSE,167,0.0,0.0,100,0.00,,,0.00,Weather View 32 v70,2013-08-12 08:30:00,
2013-08-12 04:35:00,64.7,64.7,30.20,SSE,167,0.0,0.0,100,0.00,,,0.00,Weather View 32 v70,2013-08-12 08:35:00,
2013-08-12 04:40:00,64.6,64.6,30.20,SSE,167,0.0,0.0,100,0.00,,,0.00,Weather View 32 v70,2013-08-12 08:40:00,
2013-08-12 04:45:00,64.4,64.4,30.20,SSE,167,0.0,0.0,100,0.00,,,0.00,Weather View 32 v70,2013-08-12 08:45:00,
2013-08-12 04:50:00,64.3,64.3,30.20,SSE,167,0.0,0.0,100,0.00,,,0.00,Weather View 32 v70,2013-08-12 08:50:00,
2013-08-12 04:55:00,64.3,64.3,30.20,SSE,167,0.0,0.0,100,0.00,,,0.00,Weather View 32 v70,2013-08-12 08:55:00,
2013-08-12 05:00:00,64.3,64.3,30.20,SSE,167,0.0,0.0,100,0.00,,,0.00,Weather View 32 v70,2013-08-12 09:00:00,
2013-08-12 05:05:00,64.2,64.2,30.20,SSE,167,0.0,0.0,100,0.00,,,0.00,Weather View 32 v70,2013-08-12 09:05:00,
2013-08-12 05:10:00,64.2,64.2,30.20,SSE,167,0.0,0.0,100,0.00,,,0.00,Weather View 32 v70,2013-08-12 09:10:00,
2013-08-12 05:15:00,64.2,64.2,30.20,SSE,167,0.0,0.0,100,0.00,,,0.00,Weather View 32 v70,2013-08-12 09:15:00,
2013-08-12 05:20:00,64.2,64.2,30.20,SSE,167,0.0,0.0,100,0.00,,,0.00,Weather View 32 v70,2013-08-12 09:20:00,
2013-08-12 05:25:00,64.3,64.3,30.20,SSE,167,0.0,0.0,100,0.00,,,0.00,Weather View 32 v70,2013-08-12 09:25:00,
2013-08-12 05:30:00,64.4,64.4,30.20,SSE,167,0.0,0.0,100,0.00,,,0.00,Weather View 32 v70,2013-08-12 09:30:00,
2013-08-12 05:35:00,64.3,64.3,30.19,SSE,167,0.0,0.0,100,0.00,,,0.00,Weather View 32 v70,2013-08-12 09:35:00,
2013-08-12 05:40:00,64.3,64.3,30.20,SSE,167,0.0,0.0,100,0.00,,,0.00,Weather View 32 v70,2013-08-12 09:40:00,
2013-08-12 05:45:00,64.2,64.2,30.19,SSE,167,0.0,0.0,100,0.00,,,0.00,Weather View 32 v70,2013-08-12 09:45:00,
2013-08-12 05:50:00,64.1,64.1,30.20,SSE,167,0.0,0.0,100,0.00,,,0.00,Weather View 32 v70,2013-08-12 09:50:00,
2013-08-12 05:55:00,64.1,64.1,30.20,SSE,167,0.0,0.0,100,0.00,,,0.00,Weather View 32 v70,2013-08-12 09:55:00,
2013-08-12 06:00:00,64.0,64.0,30.20,SSE,167,0.0,0.0,100,0.00,,,0.00,Weather View 32 v70,2013-08-12 10:00:00,
2013-08-12 06:05:00,63.9,63.9,30.20,SSE,167,0.0,0.0,100,0.00,,,0.00,Weather View 32 v70,2013-08-12 10:05:00,
2013-08-12 06:10:00,63.9,63.9,30.20,SSE,151,0.0,0.0,100,0.00,,,0.00,Weather View 32 v70,2013-08-12 10:10:00,
2013-08-12 06:15:00,63.8,63.8,30.20,SSE,151,0.0,0.0,100,0.00,,,0.00,Weather View 32 v70,2013-08-12 10:15:00,
2013-08-12 06:20:00,63.8,63.8,30.20,SSE,151,0.0,0.0,100,0.00,,,0.00,Weather View 32 v70,2013-08-12 10:20:00,
2013-08-12 06:25:00,63.7,63.7,30.20,SSE,151,0.0,0.0,100,0.00,,,0.00,Weather View 32 v70,2013-08-12 10:25:00,
2013-08-12 06:30:00,63.7,63.7,30.20,SSE,151,0.0,0.0,100,0.00,,,0.00,Weather View 32 v70,2013-08-12 10:30:00,
2013-08-12 06:35:00,63.7,63.7,30.20,East,87,0.0,0.0,100,0.00,,,0.00,Weather View 32 v70,2013-08-12 10:35:00,
2013-08-12 06:40:00,63.6,63.6,30.20,East,87,0.0,0.0,100,0.00,,,0.00,Weather View 32 v70,2013-08-12 10:40:00,
2013-08-12 06:45:00,63.6,63.6,30.20,East,90,0.0,0.0,100,0.00,,,0.00,Weather View 32 v70,2013-08-12 10:45:00,
2013-08-12 06:50:00,63.6,63.6,30.20,East,90,0.0,0.0,100,0.00,,,0.00,Weather View 32 v70,2013-08-12 10:50:00,
2013-08-12 06:55:00,63.5,63.5,30.20,East,90,0.0,0.0,100,0.00,,,0.00,Weather View 32 v70,2013-08-12 10:55:00,
2013-08-12 07:00:00,63.5,63.5,30.20,East,90,0.0,0.0,100,0.00,,,0.00,Weather View 32 v70,2013-08-12 11:00:00,
2013-08-12 07:05:00,63.4,63.4,30.20,East,90,0.0,0.0,100,0.00,,,0.00,Weather View 32 v70,2013-08-12 11:05:00,
2013-08-12 07:10:00,63.4,63.4,30.20,ESE,110,0.0,0.0,100,0.00,,,0.00,Weather View 32 v70,2013-08-12 11:10:00,
2013-08-12 07:15:00,63.4,63.4,30.20,ESE,111,0.0,0.0,100,0.00,,,0.00,Weather View 32 v70,2013-08-12 11:15:00,
2013-08-12 07:20:00,63.5,63.5,30.20,SE,143,0.0,0.0,100,0.00,,,0.00,Weather View 32 v70,2013-08-12 11:20:00,
2013-08-12 07:25:00,63.5,63.5,30.20,SE,143,0.0,0.0,100,0.00,,,0.00,Weather View 32 v70,2013-08-12 11:25:00,
2013-08-12 07:30:00,63.5,63.5,30.20,SE,143,0.0,0.0,100,0.00,,,0.00,Weather View 32 v70,2013-08-12 11:30:00,
2013-08-12 07:35:00,63.6,63.6,30.20,SE,143,0.0,0.0,100,0.00,,,0.00,Weather View 32 v70,2013-08-12 11:35:00,
2013-08-12 07:40:00,63.6,63.6,30.20,SE,143,0.0,0.0,100,0.00,,,0.00,Weather View 32 v70,2013-08-12 11:40:00,
2013-08-12 07:45:00,63.7,63.7,30.21,SE,143,0.0,0.0,100,0.00,,,0.00,Weather View 32 v70,2013-08-12 11:45:00,
2013-08-12 07:50:00,63.7,63.7,30.21,SE,143,0.0,0.0,100,0.00,,,0.00,Weather View 32 v70,2013-08-12 11:50:00,
2013-08-12 07:55:00,63.9,63.9,30.20,SE,143,0.0,0.0,100,0.00,,,0.00,Weather View 32 v70,2013-08-12 11:55:00,
2013-08-12 08:00:00,64.1,64.1,30.20,SE,143,0.0,0.0,100,0.00,,,0.00,Weather View 32 v70,2013-08-12 12:00:00,
2013-08-12 08:05:00,64.2,64.2,30.20,SE,143,0.0,0.0,100,0.00,,,0.00,Weather View 32 v70,2013-08-12 12:05:00,
2013-08-12 08:10:00,64.4,64.4,30.20,SE,143,0.0,0.0,100,0.00,,,0.00,Weather View 32 v70,2013-08-12 12:10:00,
2013-08-12 08:15:00,64.6,64.6,30.20,SE,143,0.0,0.0,100,0.00,,,0.00,Weather View 32 v70,2013-08-12 12:15:00,
2013-08-12 08:20:00,64.6,64.6,30.20,SE,143,0.0,0.0,100,0.00,,,0.00,Weather View 32 v70,2013-08-12 12:20:00,
2013-08-12 08:25:00,64.8,64.8,30.20,SE,143,0.0,0.0,100,0.00,,,0.00,Weather View 32 v70,2013-08-12 12:25:00,
2013-08-12 08:30:00,64.9,64.9,30.20,SE,142,0.0,0.0,100,0.00,,,0.00,Weather View 32 v70,2013-08-12 12:30:00,
2013-08-12 08:35:00,65.1,65.1,30.20,SE,142,0.0,0.0,100,0.00,,,0.00,Weather View 32 v70,2013-08-12 12:35:00,
2013-08-12 08:40:00,65.3,65.3,30.20,SE,142,0.0,0.0,100,0.00,,,0.00,Weather View 32 v70,2013-08-12 12:40:00,
2013-08-12 08:45:00,65.4,65.4,30.20,SE,142,0.0,0.0,100,0.00,,,0.00,Weather View 32 v70,2013-08-12 12:45:00,
2013-08-12 08:50:00,65.5,65.5,30.20,SE,142,0.0,0.0,100,0.00,,,0.00,Weather View 32 v70,2013-08-12 12:50:00,
2013-08-12 08:55:00,65.7,65.7,30.20,NE,41,0.0,0.0,100,0.00,,,0.00,Weather View 32 v70,2013-08-12 12:55:00,
2013-08-12 09:00:00,65.8,65.8,30.20,NE,41,0.0,0.0,100,0.00,,,0.00,Weather View 32 v70,2013-08-12 13:00:00,
2013-08-12 09:05:00,65.9,65.9,30.20,NE,41,0.0,0.0,100,0.00,,,0.00,Weather View 32 v70,2013-08-12 13:05:00,
2013-08-12 09:15:00,66.2,66.2,30.20,NE,41,0.0,0.0,100,0.00,,,0.00,Weather View 32 v70,2013-08-12 13:15:00,
2013-08-12 09:20:00,66.4,66.4,30.20,NE,42,0.0,0.0,100,0.00,,,0.00,Weather View 32 v70,2013-08-12 13:20:00,
2013-08-12 09:25:00,66.6,66.6,30.20,NE,42,0.0,0.0,100,0.00,,,0.00,Weather View 32 v70,2013-08-12 13:25:00,
2013-08-12 09:30:00,66.6,66.6,30.20,NE,45,0.0,0.0,100,0.00,,,0.00,Weather View 32 v70,2013-08-12 13:30:00,
2013-08-12 09:35:00,66.9,66.9,30.20,NE,49,0.0,0.0,100,0.00,,,0.00,Weather View 32 v70,2013-08-12 13:35:00,
2013-08-12 09:40:00,67.1,67.1,30.19,NE,50,0.0,0.0,100,0.00,,,0.00,Weather View 32 v70,2013-08-12 13:40:00,
2013-08-12 09:45:00,67.5,67.5,30.20,NNW,344,0.0,0.0,100,0.00,,,0.00,Weather View 32 v70,2013-08-12 13:45:00,
2013-08-12 09:50:00,67.8,67.8,30.20,NNW,345,0.0,0.0,100,0.00,,,0.00,Weather View 32 v70,2013-08-12 13:50:00,
2013-08-12 09:55:00,68.0,68.0,30.20,NNE,15,0.0,0.0,100,0.00,,,0.00,Weather View 32 v70,2013-08-12 13:55:00,
2013-08-12 10:00:00,68.3,68.3,30.20,NE,41,0.0,0.0,100,0.00,,,0.00,Weather View 32 v70,2013-08-12 14:00:00,
2013-08-12 10:05:00,68.6,68.6,30.20,North,357,0.0,0.0,100,0.00,,,0.00,Weather View 32 v70,2013-08-12 14:05:00,
2013-08-12 10:10:00,68.9,68.9,30.20,North,355,0.0,0.0,100,0.00,,,0.00,Weather View 32 v70,2013-08-12 14:10:00,
2013-08-12 10:15:00,69.2,69.2,30.20,NNW,345,0.0,0.0,100,0.00,,,0.00,Weather View 32 v70,2013-08-12 14:15:00,
2013-08-12 10:20:00,69.3,69.3,30.20,NW,324,0.0,0.0,100,0.00,,,0.00,Weather View 32 v70,2013-08-12 14:20:00,
2013-08-12 10:25:00,69.5,69.5,30.20,WNW,297,0.0,0.0,100,0.00,,,0.00,Weather View 32 v70,2013-08-12 14:25:00,
2013-08-12 10:30:00,69.8,69.8,30.20,WNW,296,0.0,0.0,100,0.00,,,0.00,Weather View 32 v70,2013-08-12 14:30:00,
2013-08-12 10:35:00,69.9,69.9,30.20,WNW,296,0.0,0.0,100,0.00,,,0.00,Weather View 32 v70,2013-08-12 14:35:00,
2013-08-12 10:41:00,70.1,70.1,30.20,WNW,296,0.0,0.0,100,0.00,,,0.00,Weather View 32 v70,2013-08-12 14:41:00,
2013-08-12 10:46:00,70.4,70.4,30.20,North,9,0.0,0.0,100,0.00,,,0.00,Weather View 32 v70,2013-08-12 14:46:00,
2013-08-12 10:51:00,70.6,70.6,30.20,NNW,335,0.0,2.0,100,0.00,,,0.00,Weather View 32 v70,2013-08-12 14:51:00,
2013-08-12 10:56:00,71.1,71.1,30.20,North,7,0.0,2.0,100,0.00,,,0.00,Weather View 32 v70,2013-08-12 14:56:00,
2013-08-12 11:01:00,71.6,71.6,30.20,WNW,289,0.0,2.0,100,0.00,,,0.00,Weather View 32 v70,2013-08-12 15:01:00,
2013-08-12 11:06:00,72.0,72.0,30.20,West,271,0.0,2.0,100,0.00,,,0.00,Weather View 32 v70,2013-08-12 15:06:00,
2013-08-12 11:11:00,72.1,72.1,30.20,NW,322,0.0,4.0,100,0.00,,,0.00,Weather View 32 v70,2013-08-12 15:11:00,
2013-08-12 11:16:00,72.3,72.3,30.20,NNW,336,0.0,4.0,100,0.00,,,0.00,Weather View 32 v70,2013-08-12 15:16:00,
2013-08-12 11:21:00,72.7,72.7,30.20,North,9,0.0,4.0,100,0.00,,,0.00,Weather View 32 v70,2013-08-12 15:21:00,
2013-08-12 11:26:00,73.0,72.4,30.20,NNW,334,0.0,4.0,98,0.00,,,0.00,Weather View 32 v70,2013-08-12 15:26:00,
2013-08-12 11:31:00,74.0,72.5,30.20,NNW,336,0.0,5.0,95,0.00,,,0.00,Weather View 32 v70,2013-08-12 15:31:00,
2013-08-12 11:36:00,74.8,72.9,30.20,NW,309,0.0,5.0,94,0.00,,,0.00,Weather View 32 v70,2013-08-12 15:36:00,
2013-08-12 11:41:00,75.5,72.7,30.20,NNE,12,1.0,5.0,91,0.00,,,0.00,Weather View 32 v70,2013-08-12 15:41:00,
2013-08-12 11:46:00,76.3,74.1,30.19,NNW,340,0.0,5.0,93,0.00,,,0.00,Weather View 32 v70,2013-08-12 15:46:00,
2013-08-12 11:51:00,77.0,73.8,30.20,West,259,0.0,5.0,90,0.00,,,0.00,Weather View 32 v70,2013-08-12 15:51:00,
2013-08-12 11:56:00,77.6,74.1,30.19,WSW,254,0.0,5.0,89,0.00,,,0.00,Weather View 32 v70,2013-08-12 15:56:00,
2013-08-12 12:01:00,78.3,74.1,30.20,NNW,345,2.0,5.0,87,0.00,,,0.00,Weather View 32 v70,2013-08-12 16:01:00,
2013-08-12 12:06:00,78.6,73.3,30.19,North,354,3.0,5.0,84,0.00,,,0.00,Weather View 32 v70,2013-08-12 16:06:00,
2013-08-12 12:11:00,79.0,73.7,30.20,North,355,0.0,5.0,84,0.00,,,0.00,Weather View 32 v70,2013-08-12 16:11:00,
2013-08-12 12:16:00,79.3,74.4,30.19,WNW,298,0.0,5.0,85,0.00,,,0.00,Weather View 32 v70,2013-08-12 16:16:00,
2013-08-12 12:21:00,79.2,73.2,30.19,NNE,29,1.0,5.0,82,0.00,,,0.00,Weather View 32 v70,2013-08-12 16:21:00,
2013-08-12 12:26:00,79.5,72.8,30.19,SW,229,0.0,5.0,80,0.00,,,0.00,Weather View 32 v70,2013-08-12 16:26:00,
2013-08-12 12:31:00,79.9,72.8,30.19,SW,234,0.0,5.0,79,0.00,,,0.00,Weather View 32 v70,2013-08-12 16:31:00,
2013-08-12 12:36:00,80.2,72.7,30.18,SW,234,0.0,5.0,78,0.00,,,0.00,Weather View 32 v70,2013-08-12 16:36:00,
2013-08-12 12:41:00,80.3,73.2,30.19,NNE,14,0.0,5.0,79,0.00,,,0.00,Weather View 32 v70,2013-08-12 16:41:00,
2013-08-12 12:47:00,80.5,72.6,30.18,NNE,14,0.0,5.0,77,0.00,,,0.00,Weather View 32 v70,2013-08-12 16:47:00,
2013-08-12 12:52:00,81.3,73.0,30.18,NNE,12,0.0,5.0,76,0.00,,,0.00,Weather View 32 v70,2013-08-12 16:52:00,
2013-08-12 12:57:00,81.3,72.6,30.18,NE,52,0.0,5.0,75,0.00,,,0.00,Weather View 32 v70,2013-08-12 16:57:00,
2013-08-12 13:02:00,81.1,73.6,30.18,NE,52,0.0,5.0,78,0.00,,,0.00,Weather View 32 v70,2013-08-12 17:02:00,
2013-08-12 13:07:00,80.3,73.2,30.18,NE,52,0.0,5.0,79,0.00,,,0.00,Weather View 32 v70,2013-08-12 17:07:00,
2013-08-12 13:12:00,79.4,73.0,30.17,NE,52,0.0,5.0,81,0.00,,,0.00,Weather View 32 v70,2013-08-12 17:12:00,
2013-08-12 13:17:00,78.5,72.5,30.17,NE,52,0.0,5.0,82,0.00,,,0.00,Weather View 32 v70,2013-08-12 17:17:00,
2013-08-12 13:22:00,77.8,72.2,30.17,NE,52,0.0,4.0,83,0.00,,,0.00,Weather View 32 v70,2013-08-12 17:22:00,
2013-08-12 13:27:00,77.6,72.0,30.16,NE,52,0.0,4.0,83,0.00,,,0.00,Weather View 32 v70,2013-08-12 17:27:00,
2013-08-12 13:32:00,78.7,72.7,30.16,NE,52,0.0,5.0,82,0.00,,,0.00,Weather View 32 v70,2013-08-12 17:32:00,
2013-08-12 13:37:00,80.0,74.0,30.16,East,94,0.0,5.0,82,0.00,,,0.00,Weather View 32 v70,2013-08-12 17:37:00,
2013-08-12 13:42:00,80.6,73.8,30.17,NE,43,0.0,5.0,80,0.00,,,0.00,Weather View 32 v70,2013-08-12 17:42:00,
2013-08-12 13:47:00,79.5,72.8,30.17,NNW,348,2.0,6.0,80,0.00,,,0.00,Weather View 32 v70,2013-08-12 17:47:00,
2013-08-12 13:52:00,76.9,71.7,30.18,North,352,4.0,7.0,84,0.00,,,0.00,Weather View 32 v70,2013-08-12 17:52:00,
2013-08-12 13:57:00,74.9,70.1,30.17,NNW,338,0.0,20.0,85,0.00,,,0.01,Weather View 32 v70,2013-08-12 17:57:00,
2013-08-12 14:02:00,73.4,69.9,30.18,NNW,333,0.0,20.0,89,0.06,,,0.06,Weather View 32 v70,2013-08-12 18:02:00,
2013-08-12 14:07:00,72.4,69.6,30.17,WSW,249,0.0,20.0,91,0.07,,,0.07,Weather View 32 v70,2013-08-12 18:07:00,
2013-08-12 14:12:00,71.4,68.9,30.17,East,100,1.0,20.0,92,0.07,,,0.07,Weather View 32 v70,2013-08-12 18:12:00,
2013-08-12 14:17:00,71.4,69.9,30.17,SE,133,0.0,20.0,95,0.07,,,0.07,Weather View 32 v70,2013-08-12 18:17:00,
2013-08-12 14:22:00,71.8,70.9,30.17,SE,138,0.0,20.0,97,0.07,,,0.07,Weather View 32 v70,2013-08-12 18:22:00,
2013-08-12 14:27:00,72.5,71.9,30.16,SE,141,0.0,20.0,98,0.07,,,0.07,Weather View 32 v70,2013-08-12 18:27:00,
2013-08-12 14:32:00,73.7,73.4,30.16,SE,144,0.0,20.0,99,0.07,,,0.07,Weather View 32 v70,2013-08-12 18:32:00,
2013-08-12 14:38:00,74.7,74.1,30.15,SE,145,0.0,20.0,98,0.07,,,0.07,Weather View 32 v70,2013-08-12 18:38:00,
2013-08-12 14:43:00,75.4,74.5,30.15,ENE,72,0.0,20.0,97,0.07,,,0.07,Weather View 32 v70,2013-08-12 18:43:00,
2013-08-12 14:48:00,76.3,74.4,30.14,ENE,70,0.0,20.0,94,0.07,,,0.07,Weather View 32 v70,2013-08-12 18:48:00,
2013-08-12 14:53:00,77.3,74.8,30.13,SE,128,0.0,20.0,92,0.07,,,0.07,Weather View 32 v70,2013-08-12 18:53:00,
2013-08-12 14:58:00,78.4,74.9,30.13,ESE,120,0.0,4.0,89,0.06,,,0.07,Weather View 32 v70,2013-08-12 18:58:00,
2013-08-12 15:03:00,78.9,73.6,30.13,NNE,12,0.0,3.0,84,0.01,,,0.07,Weather View 32 v70,2013-08-12 19:03:00,
2013-08-12 15:08:00,79.5,73.9,30.14,West,260,0.0,3.0,83,0.00,,,0.07,Weather View 32 v70,2013-08-12 19:08:00,
2013-08-12 15:13:00,80.1,72.6,30.13,North,356,0.0,3.0,78,0.00,,,0.07,Weather View 32 v70,2013-08-12 19:13:00,
2013-08-12 15:18:00,81.2,73.7,30.13,North,5,0.0,3.0,78,0.00,,,0.07,Weather View 32 v70,2013-08-12 19:18:00,
2013-08-12 15:23:00,82.4,74.8,30.12,North,5,0.0,3.0,78,0.00,,,0.07,Weather View 32 v70,2013-08-12 19:23:00,
2013-08-12 15:28:00,82.7,71.9,30.12,North,6,0.0,3.0,70,0.00,,,0.07,Weather View 32 v70,2013-08-12 19:28:00,
2013-08-12 15:33:00,83.1,73.1,30.12,North,6,0.0,3.0,72,0.00,,,0.07,Weather View 32 v70,2013-08-12 19:33:00,
2013-08-12 15:38:00,82.9,73.3,30.12,NNW,343,0.0,3.0,73,0.00,,,0.07,Weather View 32 v70,2013-08-12 19:38:00,
2013-08-12 15:43:00,82.2,72.6,30.12,NNE,12,0.0,5.0,73,0.00,,,0.07,Weather View 32 v70,2013-08-12 19:43:00,
2013-08-12 15:48:00,81.5,72.0,30.12,North,357,0.0,5.0,73,0.00,,,0.07,Weather View 32 v70,2013-08-12 19:48:00,
2013-08-12 15:53:00,81.1,73.9,30.13,North,357,0.0,5.0,79,0.00,,,0.07,Weather View 32 v70,2013-08-12 19:53:00,
2013-08-12 15:58:00,80.2,73.1,30.14,North,358,0.0,5.0,79,0.00,,,0.07,Weather View 32 v70,2013-08-12 19:58:00,
2013-08-12 16:03:00,79.3,72.6,30.13,North,356,0.0,5.0,80,0.00,,,0.07,Weather View 32 v70,2013-08-12 20:03:00,
2013-08-12 16:08:00,78.6,73.0,30.13,North,355,0.0,5.0,83,0.00,,,0.07,Weather View 32 v70,2013-08-12 20:08:00,
2013-08-12 16:13:00,78.2,73.3,30.12,North,355,0.0,5.0,85,0.00,,,0.07,Weather View 32 v70,2013-08-12 20:13:00,
2013-08-12 16:18:00,77.7,73.5,30.12,North,355,0.0,5.0,87,0.00,,,0.07,Weather View 32 v70,2013-08-12 20:18:00,
2013-08-12 16:23:00,77.2,73.4,30.11,North,354,0.0,5.0,88,0.00,,,0.07,Weather View 32 v70,2013-08-12 20:23:00,
2013-08-12 16:28:00,76.9,73.4,30.10,North,354,0.0,5.0,89,0.00,,,0.07,Weather View 32 v70,2013-08-12 20:28:00,
2013-08-12 16:33:00,76.5,73.3,30.10,North,354,0.0,5.0,90,0.00,,,0.07,Weather View 32 v70,2013-08-12 20:33:00,
2013-08-12 16:38:00,76.4,73.6,30.10,North,352,0.0,5.0,91,0.00,,,0.07,Weather View 32 v70,2013-08-12 20:38:00,
2013-08-12 16:43:00,76.1,73.6,30.10,North,352,0.0,0.0,92,0.00,,,0.07,Weather View 32 v70,2013-08-12 20:43:00,
2013-08-12 16:48:00,76.0,73.5,30.11,North,352,0.0,0.0,92,0.00,,,0.07,Weather View 32 v70,2013-08-12 20:48:00,
2013-08-12 16:53:00,75.5,73.0,30.11,NNW,339,0.0,0.0,92,0.00,,,0.07,Weather View 32 v70,2013-08-12 20:53:00,
2013-08-12 16:58:00,75.2,73.0,30.11,NNW,339,0.0,0.0,93,0.00,,,0.07,Weather View 32 v70,2013-08-12 20:58:00,
2013-08-12 17:03:00,75.0,73.1,30.12,NNW,339,0.0,0.0,94,0.00,,,0.07,Weather View 32 v70,2013-08-12 21:03:00,
2013-08-12 17:08:00,74.8,73.3,30.12,NNW,338,0.0,0.0,95,0.00,,,0.07,Weather View 32 v70,2013-08-12 21:08:00,
2013-08-12 17:13:00,74.8,73.6,30.12,NNW,338,0.0,0.0,96,0.00,,,0.07,Weather View 32 v70,2013-08-12 21:13:00,
2013-08-12 17:18:00,74.9,74.0,30.12,NNW,338,0.0,0.0,97,0.00,,,0.07,Weather View 32 v70,2013-08-12 21:18:00,
2013-08-12 17:23:00,75.1,74.5,30.12,NNW,338,0.0,0.0,98,0.00,,,0.07,Weather View 32 v70,2013-08-12 21:23:00,
2013-08-12 17:28:00,75.2,74.6,30.12,NNW,338,0.0,0.0,98,0.00,,,0.07,Weather View 32 v70,2013-08-12 21:28:00,
2013-08-12 17:33:00,75.3,74.7,30.13,North,354,0.0,0.0,98,0.00,,,0.07,Weather View 32 v70,2013-08-12 21:33:00,
2013-08-12 17:38:00,75.5,74.6,30.12,North,7,0.0,0.0,97,0.00,,,0.07,Weather View 32 v70,2013-08-12 21:38:00,
2013-08-12 17:43:00,75.6,74.7,30.12,North,7,0.0,0.0,97,0.00,,,0.07,Weather View 32 v70,2013-08-12 21:43:00,
2013-08-12 17:48:00,75.7,74.8,30.11,North,6,0.0,0.0,97,0.00,,,0.07,Weather View 32 v70,2013-08-12 21:48:00,
2013-08-12 17:53:00,75.8,74.9,30.11,North,6,0.0,0.0,97,0.00,,,0.07,Weather View 32 v70,2013-08-12 21:53:00,
2013-08-12 17:58:00,75.7,74.8,30.11,North,6,0.0,0.0,97,0.00,,,0.07,Weather View 32 v70,2013-08-12 21:58:00,
2013-08-12 18:03:00,75.7,74.8,30.10,North,6,0.0,0.0,97,0.00,,,0.07,Weather View 32 v70,2013-08-12 22:03:00,
2013-08-12 18:08:00,75.6,74.7,30.10,North,6,0.0,0.0,97,0.00,,,0.07,Weather View 32 v70,2013-08-12 22:08:00,
2013-08-12 18:13:00,75.1,73.9,30.09,North,6,0.0,0.0,96,0.00,,,0.07,Weather View 32 v70,2013-08-12 22:13:00,
2013-08-12 18:18:00,74.6,72.8,30.09,North,6,0.0,0.0,94,0.00,,,0.07,Weather View 32 v70,2013-08-12 22:18:00,
2013-08-12 18:23:00,74.4,72.6,30.09,North,6,0.0,0.0,94,0.00,,,0.07,Weather View 32 v70,2013-08-12 22:23:00,
2013-08-12 18:28:00,74.2,72.7,30.09,North,6,0.0,0.0,95,0.00,,,0.07,Weather View 32 v70,2013-08-12 22:28:00,
2013-08-12 18:34:00,74.1,72.9,30.09,North,6,0.0,0.0,96,0.00,,,0.07,Weather View 32 v70,2013-08-12 22:34:00,
2013-08-12 18:40:00,73.9,73.0,30.09,North,6,0.0,0.0,97,0.00,,,0.07,Weather View 32 v70,2013-08-12 22:40:00,
2013-08-12 18:45:00,73.8,73.2,30.09,North,6,0.0,0.0,98,0.00,,,0.07,Weather View 32 v70,2013-08-12 22:45:00,
2013-08-12 18:50:00,73.8,73.2,30.09,North,6,0.0,0.0,98,0.00,,,0.07,Weather View 32 v70,2013-08-12 22:50:00,
2013-08-12 18:55:00,73.8,73.2,30.10,North,6,0.0,0.0,98,0.00,,,0.07,Weather View 32 v70,2013-08-12 22:55:00,
2013-08-12 19:00:00,73.8,73.2,30.10,North,6,0.0,0.0,98,0.00,,,0.07,Weather View 32 v70,2013-08-12 23:00:00,
2013-08-12 19:05:00,73.8,73.2,30.09,North,6,0.0,0.0,98,0.00,,,0.07,Weather View 32 v70,2013-08-12 23:05:00,
2013-08-12 19:10:00,73.7,73.1,30.09,North,6,0.0,0.0,98,0.00,,,0.07,Weather View 32 v70,2013-08-12 23:10:00,
2013-08-12 19:15:00,73.7,73.1,30.09,North,6,0.0,0.0,98,0.00,,,0.07,Weather View 32 v70,2013-08-12 23:15:00,
2013-08-12 19:20:00,73.7,73.4,30.09,North,6,0.0,0.0,99,0.00,,,0.07,Weather View 32 v70,2013-08-12 23:20:00,
2013-08-12 19:25:00,73.6,73.3,30.10,North,6,0.0,0.0,99,0.00,,,0.07,Weather View 32 v70,2013-08-12 23:25:00,
2013-08-12 19:30:00,73.5,73.2,30.09,North,6,0.0,0.0,99,0.00,,,0.07,Weather View 32 v70,2013-08-12 23:30:00,
2013-08-12 19:35:00,73.3,73.0,30.09,North,7,0.0,0.0,99,0.00,,,0.07,Weather View 32 v70,2013-08-12 23:35:00,
2013-08-12 19:40:00,73.2,72.9,30.09,North,8,0.0,0.0,99,0.00,,,0.07,Weather View 32 v70,2013-08-12 23:40:00,
2013-08-12 19:45:00,73.1,73.1,30.09,North,8,0.0,0.0,100,0.00,,,0.07,Weather View 32 v70,2013-08-12 23:45:00,
2013-08-12 19:50:00,72.9,72.9,30.10,North,8,0.0,0.0,100,0.00,,,0.07,Weather View 32 v70,2013-08-12 23:50:00,
2013-08-12 19:55:00,72.8,72.8,30.10,North,8,0.0,0.0,100,0.00,,,0.07,Weather View 32 v70,2013-08-12 23:55:00,
2013-08-12 20:00:00,72.6,72.6,30.10,North,9,0.0,0.0,100,0.00,,,0.07,Weather View 32 v70,2013-08-13 00:00:00,
2013-08-12 20:05:00,72.3,72.0,30.09,North,8,0.0,0.0,99,0.00,,,0.07,Weather View 32 v70,2013-08-13 00:05:00,
2013-08-12 20:10:00,72.0,72.0,30.09,North,8,0.0,0.0,100,0.00,,,0.07,Weather View 32 v70,2013-08-13 00:10:00,
2013-08-12 20:15:00,71.7,71.7,30.09,North,9,0.0,0.0,100,0.00,,,0.07,Weather View 32 v70,2013-08-13 00:15:00,
2013-08-12 20:20:00,71.4,71.4,30.09,NNE,15,0.0,0.0,100,0.00,,,0.07,Weather View 32 v70,2013-08-13 00:20:00,
2013-08-12 20:25:00,71.1,71.1,30.09,NNE,15,0.0,0.0,100,0.00,,,0.07,Weather View 32 v70,2013-08-13 00:25:00,
2013-08-12 20:30:00,70.8,70.8,30.09,NNE,15,0.0,0.0,100,0.00,,,0.07,Weather View 32 v70,2013-08-13 00:30:00,
2013-08-12 20:35:00,70.5,70.5,30.09,NNE,20,0.0,0.0,100,0.00,,,0.07,Weather View 32 v70,2013-08-13 00:35:00,
2013-08-12 20:40:00,70.2,70.2,30.09,NNE,17,0.0,0.0,100,0.00,,,0.07,Weather View 32 v70,2013-08-13 00:40:00,
2013-08-12 20:45:00,70.0,70.0,30.09,NE,39,0.0,0.0,100,0.00,,,0.07,Weather View 32 v70,2013-08-13 00:45:00,
2013-08-12 20:50:00,69.9,69.9,30.11,NE,39,0.0,0.0,100,0.00,,,0.07,Weather View 32 v70,2013-08-13 00:50:00,
2013-08-12 20:55:00,69.7,69.7,30.11,NE,39,0.0,0.0,100,0.00,,,0.07,Weather View 32 v70,2013-08-13 00:55:00,
2013-08-12 21:00:00,69.4,69.4,30.11,NE,39,0.0,0.0,100,0.00,,,0.07,Weather View 32 v70,2013-08-13 01:00:00,
2013-08-12 21:05:00,69.2,69.2,30.11,NE,39,0.0,0.0,100,0.00,,,0.07,Weather View 32 v70,2013-08-13 01:05:00,
2013-08-12 21:10:00,68.8,68.8,30.11,NE,40,0.0,0.0,100,0.00,,,0.07,Weather View 32 v70,2013-08-13 01:10:00,
2013-08-12 21:15:00,68.6,68.6,30.11,NE,42,0.0,0.0,100,0.00,,,0.07,Weather View 32 v70,2013-08-13 01:15:00,
2013-08-12 21:20:00,68.4,68.4,30.11,NE,43,0.0,0.0,100,0.00,,,0.07,Weather View 32 v70,2013-08-13 01:20:00,
2013-08-12 21:25:00,68.3,68.3,30.12,NE,43,0.0,0.0,100,0.00,,,0.07,Weather View 32 v70,2013-08-13 01:25:00,
2013-08-12 21:30:00,68.1,68.1,30.12,NE,43,0.0,0.0,100,0.00,,,0.07,Weather View 32 v70,2013-08-13 01:30:00,
2013-08-12 21:35:00,67.9,67.9,30.12,NE,43,0.0,0.0,100,0.00,,,0.07,Weather View 32 v70,2013-08-13 01:35:00,
2013-08-12 21:40:00,67.8,67.8,30.12,NE,45,0.0,0.0,100,0.00,,,0.07,Weather View 32 v70,2013-08-13 01:40:00,
2013-08-12 21:45:00,67.7,67.7,30.12,NE,45,0.0,0.0,100,0.00,,,0.07,Weather View 32 v70,2013-08-13 01:45:00,
2013-08-12 21:50:00,67.6,67.6,30.12,NE,46,0.0,0.0,100,0.00,,,0.07,Weather View 32 v70,2013-08-13 01:50:00,
2013-08-12 21:56:00,67.4,67.4,30.12,NE,46,0.0,0.0,100,0.00,,,0.07,Weather View 32 v70,2013-08-13 01:56:00,
2013-08-12 22:01:00,67.4,67.4,30.12,SSW,205,0.0,0.0,100,0.00,,,0.07,Weather View 32 v70,2013-08-13 02:01:00,
2013-08-12 22:06:00,67.3,67.3,30.12,SSW,206,0.0,0.0,100,0.00,,,0.07,Weather View 32 v70,2013-08-13 02:06:00,
2013-08-12 22:11:00,67.3,67.3,30.12,SSW,203,0.0,0.0,100,0.00,,,0.07,Weather View 32 v70,2013-08-13 02:11:00,
2013-08-12 22:16:00,67.3,67.3,30.12,SSW,205,0.0,0.0,100,0.00,,,0.07,Weather View 32 v70,2013-08-13 02:16:00,
2013-08-12 22:21:00,67.2,67.2,30.12,SSW,205,0.0,0.0,100,0.11,,,0.07,Weather View 32 v70,2013-08-13 02:21:00,
2013-08-12 22:26:00,67.1,67.1,30.12,SSW,205,0.0,0.0,100,0.11,,,0.07,Weather View 32 v70,2013-08-13 02:26:00,
2013-08-12 22:31:00,67.1,67.1,30.12,SSW,205,0.0,0.0,100,0.00,,,0.07,Weather View 32 v70,2013-08-13 02:31:00,
2013-08-12 22:36:00,67.1,67.1,30.12,SSW,202,0.0,0.0,100,0.00,,,0.07,Weather View 32 v70,2013-08-13 02:36:00,
2013-08-12 22:41:00,67.0,67.0,30.12,SSW,198,0.0,0.0,100,0.00,,,0.07,Weather View 32 v70,2013-08-13 02:41:00,
2013-08-12 22:46:00,67.0,67.0,30.12,SSW,198,0.0,0.0,100,0.00,,,0.07,Weather View 32 v70,2013-08-13 02:46:00,
2013-08-12 22:51:00,66.9,66.9,30.12,SSW,198,0.0,0.0,100,0.00,,,0.07,Weather View 32 v70,2013-08-13 02:51:00,
2013-08-12 22:56:00,66.8,66.8,30.12,SSW,198,0.0,0.0,100,0.00,,,0.07,Weather View 32 v70,2013-08-13 02:56:00,
2013-08-12 23:01:00,66.7,66.7,30.11,SSW,198,0.0,0.0,100,0.00,,,0.07,Weather View 32 v70,2013-08-13 03:01:00,
2013-08-12 23:06:00,66.7,66.7,30.11,SSW,198,0.0,0.0,100,0.00,,,0.07,Weather View 32 v70,2013-08-13 03:06:00,
2013-08-12 23:11:00,66.6,66.6,30.12,SSW,198,0.0,0.0,100,0.00,,,0.07,Weather View 32 v70,2013-08-13 03:11:00,
2013-08-12 23:16:00,66.6,66.6,30.11,SSW,198,0.0,0.0,100,0.00,,,0.07,Weather View 32 v70,2013-08-13 03:16:00,
2013-08-12 23:21:00,66.5,66.5,30.11,SSW,198,0.0,0.0,100,0.00,,,0.07,Weather View 32 v70,2013-08-13 03:21:00,
2013-08-12 23:26:00,66.4,66.4,30.11,SSW,198,0.0,0.0,100,0.00,,,0.07,Weather View 32 v70,2013-08-13 03:26:00,
2013-08-12 23:31:00,66.4,66.4,30.11,SSW,198,0.0,0.0,100,0.00,,,0.07,Weather View 32 v70,2013-08-13 03:31:00,
2013-08-12 23:36:00,66.2,66.2,30.11,SSW,198,0.0,0.0,100,0.00,,,0.07,Weather View 32 v70,2013-08-13 03:36:00,
2013-08-12 23:41:00,66.1,66.1,30.11,SSW,198,0.0,0.0,100,0.00,,,0.07,Weather View 32 v70,2013-08-13 03:41:00,
2013-08-12 23:46:00,66.1,66.1,30.11,SSW,199,0.0,0.0,100,0.00,,,0.07,Weather View 32 v70,2013-08-13 03:46:00,
2013-08-12 23:53:00,66.0,66.0,30.11,SSW,199,0.0,0.0,100,0.00,,,0.07,Weather View 32 v70,2013-08-13 03:53:00,
2013-08-12 23:58:00,65.9,65.9,30.11,SSW,199,0.0,0.0,100,-0.07,,,0.00,Weather View 32 v70,2013-08-13 03:58:00,